»·PEaware :: N342LP KSNA-KVCV

N342LP :: KSNA-KVCV

FLIGHT INFORMATION

Flight Status: Arrived
Operator: Privately registered:
United States
More flights under this callsign
Pilot: Dante R. (31808)
Aircraft: CESSNA 172 SKYHAWK
(C172)
More flights by this aircraft type
Origin: KSNA John Wayne-Orange Co
United States
Destination: KVCV Socal Logistics
United States
More flights between these airports :: More routes between these airports
Route: +
File this flight plan on PilotEdge
Remarks:
Altitude:
(Current/Filed)
0ft
Speed:
(Current/Filed)
0kts
Departed: 04-Nov-20 09:24 PM
Arrived: 04-Nov-20 10:05 PM
Distance/Time
Traveled:
60nm/0:41
Distance/Time
To Go:
Arrived

Flight Plot

Page will automatically refresh every two minutes.


Map Options




Map Legend


Flown Route
Filed Route
Departure Airport
Arrival Airport
Navaid (VOR, NDB)
Fix

Horizontal Profiles

Position Reports

Time Latitude Longitude Heading Altitude Ground
Speed
04-Nov-20 21:15 33.674718 -117.871619 217 59ft 0kts
04-Nov-20 21:15 33.674718 -117.871619 217 59ft 0kts
04-Nov-20 21:17 33.674718 -117.871619 217 59ft 0kts
04-Nov-20 21:17 33.674718 -117.871619 217 59ft 0kts
04-Nov-20 21:18 33.674718 -117.871619 217 59ft 0kts
04-Nov-20 21:19 33.674578 -117.871692 172 59ft 2kts
04-Nov-20 21:20 33.678309 -117.868661 27 59ft 28kts
04-Nov-20 21:21 33.681220 -117.866431 116 59ft 0kts
04-Nov-20 21:22 33.681219 -117.866430 116 59ft 0kts
04-Nov-20 21:23 33.674572 -117.869564 207 81ft 85kts
04-Nov-20 21:24 33.656199 -117.888660 249 833ft 97kts
04-Nov-20 21:25 33.649916 -117.919929 291 1585ft 99kts
04-Nov-20 21:26 33.674925 -117.920049 26 2282ft 101kts
04-Nov-20 21:27 33.699016 -117.902632 32 3034ft 102kts
04-Nov-20 21:28 33.721829 -117.882051 37 3746ft 103kts
04-Nov-20 21:29 33.746056 -117.863136 28 4421ft 104kts
04-Nov-20 21:30 33.771566 -117.846030 39 5036ft 106kts
04-Nov-20 21:31 33.794485 -117.820839 45 5380ft 119kts
04-Nov-20 21:32 33.819402 -117.792652 41 5401ft 124kts
04-Nov-20 21:33 33.845187 -117.765453 40 5377ft 121kts
04-Nov-20 21:34 33.871080 -117.740386 38 5413ft 120kts
04-Nov-20 21:35 33.888624 -117.707581 72 5392ft 121kts
04-Nov-20 21:36 33.897234 -117.668669 78 5289ft 120kts
04-Nov-20 21:37 33.904705 -117.629338 73 5194ft 120kts
04-Nov-20 21:38 33.915667 -117.592916 61 5341ft 111kts
04-Nov-20 21:39 33.932783 -117.561967 54 5495ft 110kts
04-Nov-20 21:40 33.951318 -117.532228 46 5574ft 112kts
04-Nov-20 21:41 33.974946 -117.507925 34 5487ft 111kts
04-Nov-20 21:42 34.001664 -117.488681 29 5384ft 110kts
04-Nov-20 21:43 34.029791 -117.473075 20 5437ft 115kts
04-Nov-20 21:44 34.061483 -117.462686 14 5426ft 119kts
04-Nov-20 21:45 34.092792 -117.448972 25 5325ft 120kts
04-Nov-20 21:46 34.122877 -117.431608 25 5246ft 119kts
04-Nov-20 21:47 34.154132 -117.420256 353 5675ft 118kts
04-Nov-20 21:48 34.187159 -117.425529 354 6049ft 121kts
04-Nov-20 21:49 34.219942 -117.434345 341 6398ft 122kts
04-Nov-20 21:50 34.252106 -117.446666 346 6610ft 121kts
04-Nov-20 21:51 34.285332 -117.453427 0 6769ft 121kts
04-Nov-20 21:52 34.319169 -117.448801 8 6887ft 123kts
04-Nov-20 21:53 34.351889 -117.440917 14 6712ft 116kts
04-Nov-20 21:54 34.382817 -117.433902 9 6414ft 112kts
04-Nov-20 21:55 34.413793 -117.427718 12 6152ft 113kts
04-Nov-20 21:56 34.444536 -117.421297 12 5864ft 112kts
04-Nov-20 21:57 34.474670 -117.413861 13 5459ft 108kts
04-Nov-20 21:58 34.503191 -117.405905 14 5063ft 104kts
04-Nov-20 21:59 34.531176 -117.398741 13 4438ft 103kts
04-Nov-20 22:00 34.556676 -117.385403 35 3935ft 101kts
04-Nov-20 22:01 34.577562 -117.364318 46 3800ft 96kts
04-Nov-20 22:02 34.597122 -117.342524 25 3728ft 89kts
04-Nov-20 22:03 34.606467 -117.359511 222 3300ft 98kts
04-Nov-20 22:04 34.589897 -117.379141 225 2871ft 38kts
04-Nov-20 22:05 34.585265 -117.384708 223 2876ft 0kts
04-Nov-20 22:06 34.584842 -117.384998 252 2877ft 2kts
04-Nov-20 22:07 34.585088 -117.382444 49 2878ft 13kts
04-Nov-20 22:08 34.584777 -117.380926 145 2879ft 0kts
04-Nov-20 22:09 34.584777 -117.380926 145 2879ft 0kts
04-Nov-20 22:10 34.584777 -117.380926 145 2879ft 0kts
04-Nov-20 22:11 34.584777 -117.380926 145 2879ft 0kts
04-Nov-20 22:12 34.584777 -117.380926 145 2879ft 0kts
04-Nov-20 22:13 34.584777 -117.380926 145 2879ft 0kts
04-Nov-20 22:14 34.584777 -117.380926 145 2879ft 0kts
04-Nov-20 22:15 34.584777 -117.380926 145 2879ft 0kts
04-Nov-20 22:16 34.584777 -117.380926 145 2879ft 0kts
04-Nov-20 22:17 34.584777 -117.380926 145 2879ft 0kts
04-Nov-20 22:18 34.584777 -117.380926 145 2879ft 0kts

Navigation Log

Ident Type
Flight plan parsing failed, navigation log unavailable